sensor_id;sensor_type;location;lat;lon;timestamp;temperature;humidity
49829;DHT22;35723;51.194;5.112;2023-01-08T00:02:16;12.30;99.90
49829;DHT22;35723;51.194;5.112;2023-01-08T00:04:42;12.30;99.90
49829;DHT22;35723;51.194;5.112;2023-01-08T00:07:08;12.40;99.90
49829;DHT22;35723;51.194;5.112;2023-01-08T00:09:33;12.30;99.90
49829;DHT22;35723;51.194;5.112;2023-01-08T00:11:59;12.30;99.90
49829;DHT22;35723;51.194;5.112;2023-01-08T00:14:25;12.40;99.90
49829;DHT22;35723;51.194;5.112;2023-01-08T00:16:50;12.30;99.90
49829;DHT22;35723;51.194;5.112;2023-01-08T00:19:16;12.30;99.90
49829;DHT22;35723;51.194;5.112;2023-01-08T00:21:42;12.30;99.90
49829;DHT22;35723;51.194;5.112;2023-01-08T00:24:08;12.30;99.90
49829;DHT22;35723;51.194;5.112;2023-01-08T00:26:33;12.40;99.90
49829;DHT22;35723;51.194;5.112;2023-01-08T00:28:59;12.40;99.90
49829;DHT22;35723;51.194;5.112;2023-01-08T00:31:25;12.40;99.90
49829;DHT22;35723;51.194;5.112;2023-01-08T00:33:50;12.30;99.90
49829;DHT22;35723;51.194;5.112;2023-01-08T00:36:17;12.30;99.90
49829;DHT22;35723;51.194;5.112;2023-01-08T00:38:44;12.30;99.90
49829;DHT22;35723;51.194;5.112;2023-01-08T00:41:11;12.20;99.90
49829;DHT22;35723;51.194;5.112;2023-01-08T00:43:37;12.30;99.90
49829;DHT22;35723;51.194;5.112;2023-01-08T00:46:03;12.30;99.90
49829;DHT22;35723;51.194;5.112;2023-01-08T00:48:30;12.40;99.90
49829;DHT22;35723;51.194;5.112;2023-01-08T00:50:55;12.30;99.90
49829;DHT22;35723;51.194;5.112;2023-01-08T00:53:22;12.40;99.90
49829;DHT22;35723;51.194;5.112;2023-01-08T00:55:48;12.40;99.90
49829;DHT22;35723;51.194;5.112;2023-01-08T00:58:14;12.40;99.90
49829;DHT22;35723;51.194;5.112;2023-01-08T01:00:40;12.40;99.90
49829;DHT22;35723;51.194;5.112;2023-01-08T01:03:05;12.30;99.90
49829;DHT22;35723;51.194;5.112;2023-01-08T01:05:31;12.20;99.90
49829;DHT22;35723;51.194;5.112;2023-01-08T01:07:57;12.10;99.90
49829;DHT22;35723;51.194;5.112;2023-01-08T01:10:23;12.20;99.90
49829;DHT22;35723;51.194;5.112;2023-01-08T01:12:49;12.30;99.90
49829;DHT22;35723;51.194;5.112;2023-01-08T01:15:18;12.30;99.90
49829;DHT22;35723;51.194;5.112;2023-01-08T01:17:44;12.30;99.90
49829;DHT22;35723;51.194;5.112;2023-01-08T01:20:13;12.30;99.90
49829;DHT22;35723;51.194;5.112;2023-01-08T01:22:40;12.30;99.90
49829;DHT22;35723;51.194;5.112;2023-01-08T01:25:06;12.20;99.90
49829;DHT22;35723;51.194;5.112;2023-01-08T01:27:32;12.00;99.90
49829;DHT22;35723;51.194;5.112;2023-01-08T01:29:57;11.90;99.90
49829;DHT22;35723;51.194;5.112;2023-01-08T01:32:23;11.80;99.90
49829;DHT22;35723;51.194;5.112;2023-01-08T01:34:49;11.70;99.90
49829;DHT22;35723;51.194;5.112;2023-01-08T01:37:15;11.50;99.90
49829;DHT22;35723;51.194;5.112;2023-01-08T01:39:41;11.40;99.90
49829;DHT22;35723;51.194;5.112;2023-01-08T01:42:16;11.40;99.90
49829;DHT22;35723;51.194;5.112;2023-01-08T01:45:01;11.40;99.90
49829;DHT22;35723;51.194;5.112;2023-01-08T01:47:33;11.40;99.90
49829;DHT22;35723;51.194;5.112;2023-01-08T01:53:02;11.30;99.90
49829;DHT22;35723;51.194;5.112;2023-01-08T01:55:27;11.10;99.90
49829;DHT22;35723;51.194;5.112;2023-01-08T02:00:34;11.20;99.90
49829;DHT22;35723;51.194;5.112;2023-01-08T02:03:00;11.00;99.90
49829;DHT22;35723;51.194;5.112;2023-01-08T02:05:32;11.00;99.90
49829;DHT22;35723;51.194;5.112;2023-01-08T02:08:07;11.20;99.90
49829;DHT22;35723;51.194;5.112;2023-01-08T02:10:49;11.30;99.90
49829;DHT22;35723;51.194;5.112;2023-01-08T02:13:22;11.10;99.90
49829;DHT22;35723;51.194;5.112;2023-01-08T02:16:13;11.10;99.90
49829;DHT22;35723;51.194;5.112;2023-01-08T02:18:49;11.10;99.90
49829;DHT22;35723;51.194;5.112;2023-01-08T02:21:56;11.30;99.90
49829;DHT22;35723;51.194;5.112;2023-01-08T02:27:08;11.20;99.90
49829;DHT22;35723;51.194;5.112;2023-01-08T02:29:35;11.00;99.90
49829;DHT22;35723;51.194;5.112;2023-01-08T02:32:01;11.10;99.90
49829;DHT22;35723;51.194;5.112;2023-01-08T02:34:27;11.10;99.90
49829;DHT22;35723;51.194;5.112;2023-01-08T02:36:56;11.10;99.90
49829;DHT22;35723;51.194;5.112;2023-01-08T02:39:44;11.10;99.90
49829;DHT22;35723;51.194;5.112;2023-01-08T02:47:40;10.90;99.90
49829;DHT22;35723;51.194;5.112;2023-01-08T02:53:14;10.90;99.90
49829;DHT22;35723;51.194;5.112;2023-01-08T02:55:48;11.00;99.90
49829;DHT22;35723;51.194;5.112;2023-01-08T02:58:16;10.80;99.90
49829;DHT22;35723;51.194;5.112;2023-01-08T03:00:44;10.90;99.90
49829;DHT22;35723;51.194;5.112;2023-01-08T03:03:11;11.00;99.90
49829;DHT22;35723;51.194;5.112;2023-01-08T03:05:41;11.00;99.90
49829;DHT22;35723;51.194;5.112;2023-01-08T03:08:08;11.10;99.90
49829;DHT22;35723;51.194;5.112;2023-01-08T03:10:36;11.10;99.90
49829;DHT22;35723;51.194;5.112;2023-01-08T03:13:11;11.10;99.90
49829;DHT22;35723;51.194;5.112;2023-01-08T03:15:46;11.10;99.90
49829;DHT22;35723;51.194;5.112;2023-01-08T03:18:18;11.00;99.90
49829;DHT22;35723;51.194;5.112;2023-01-08T03:20:46;10.90;99.90
49829;DHT22;35723;51.194;5.112;2023-01-08T03:23:14;11.00;99.90
49829;DHT22;35723;51.194;5.112;2023-01-08T03:25:45;10.90;99.90
49829;DHT22;35723;51.194;5.112;2023-01-08T03:28:17;11.00;99.90
49829;DHT22;35723;51.194;5.112;2023-01-08T03:30:45;11.10;99.90
49829;DHT22;35723;51.194;5.112;2023-01-08T03:33:12;11.10;99.90
49829;DHT22;35723;51.194;5.112;2023-01-08T03:35:40;11.20;99.90
49829;DHT22;35723;51.194;5.112;2023-01-08T03:38:14;11.30;99.90
49829;DHT22;35723;51.194;5.112;2023-01-08T03:40:47;11.20;99.90
49829;DHT22;35723;51.194;5.112;2023-01-08T03:43:13;11.30;99.90
49829;DHT22;35723;51.194;5.112;2023-01-08T03:45:48;11.10;99.90
49829;DHT22;35723;51.194;5.112;2023-01-08T03:48:14;11.10;99.90
49829;DHT22;35723;51.194;5.112;2023-01-08T03:50:40;11.10;99.90
49829;DHT22;35723;51.194;5.112;2023-01-08T03:53:07;11.10;99.90
49829;DHT22;35723;51.194;5.112;2023-01-08T03:55:34;11.10;99.90
49829;DHT22;35723;51.194;5.112;2023-01-08T03:58:00;11.10;99.90
49829;DHT22;35723;51.194;5.112;2023-01-08T04:00:25;11.20;99.90
49829;DHT22;35723;51.194;5.112;2023-01-08T04:02:51;11.10;99.90
49829;DHT22;35723;51.194;5.112;2023-01-08T04:05:17;11.10;99.90
49829;DHT22;35723;51.194;5.112;2023-01-08T04:07:42;11.00;99.90
49829;DHT22;35723;51.194;5.112;2023-01-08T04:10:08;10.80;99.90
49829;DHT22;35723;51.194;5.112;2023-01-08T04:12:34;10.90;99.90
49829;DHT22;35723;51.194;5.112;2023-01-08T04:15:00;10.90;99.90
49829;DHT22;35723;51.194;5.112;2023-01-08T04:17:25;11.00;99.90
49829;DHT22;35723;51.194;5.112;2023-01-08T04:19:51;11.00;99.90
49829;DHT22;35723;51.194;5.112;2023-01-08T04:22:16;11.00;99.90
49829;DHT22;35723;51.194;5.112;2023-01-08T04:24:42;11.00;99.90
49829;DHT22;35723;51.194;5.112;2023-01-08T04:27:08;11.20;99.90
49829;DHT22;35723;51.194;5.112;2023-01-08T04:29:33;11.20;99.90
49829;DHT22;35723;51.194;5.112;2023-01-08T04:32:00;11.20;99.90
49829;DHT22;35723;51.194;5.112;2023-01-08T04:34:25;11.20;99.90
49829;DHT22;35723;51.194;5.112;2023-01-08T04:36:51;11.20;99.90
49829;DHT22;35723;51.194;5.112;2023-01-08T04:39:16;11.20;99.90
49829;DHT22;35723;51.194;5.112;2023-01-08T04:41:42;11.10;99.90
49829;DHT22;35723;51.194;5.112;2023-01-08T04:44:08;11.10;99.90
49829;DHT22;35723;51.194;5.112;2023-01-08T04:46:34;11.10;99.90
49829;DHT22;35723;51.194;5.112;2023-01-08T04:48:59;11.10;99.90
49829;DHT22;35723;51.194;5.112;2023-01-08T04:51:25;11.00;99.90
49829;DHT22;35723;51.194;5.112;2023-01-08T04:53:51;11.00;99.90
49829;DHT22;35723;51.194;5.112;2023-01-08T04:56:16;10.90;99.90
49829;DHT22;35723;51.194;5.112;2023-01-08T04:58:42;10.90;99.90
49829;DHT22;35723;51.194;5.112;2023-01-08T05:01:13;10.90;99.90
49829;DHT22;35723;51.194;5.112;2023-01-08T05:03:40;10.80;99.90
49829;DHT22;35723;51.194;5.112;2023-01-08T05:06:06;10.90;99.90
49829;DHT22;35723;51.194;5.112;2023-01-08T05:08:32;10.80;99.90
49829;DHT22;35723;51.194;5.112;2023-01-08T05:10:58;10.90;99.90
49829;DHT22;35723;51.194;5.112;2023-01-08T05:13:24;11.00;99.90
49829;DHT22;35723;51.194;5.112;2023-01-08T05:15:50;11.00;99.90
49829;DHT22;35723;51.194;5.112;2023-01-08T05:18:15;11.00;99.90
49829;DHT22;35723;51.194;5.112;2023-01-08T05:20:41;11.10;99.90
49829;DHT22;35723;51.194;5.112;2023-01-08T05:23:06;11.00;99.90
49829;DHT22;35723;51.194;5.112;2023-01-08T05:25:33;10.80;99.90
49829;DHT22;35723;51.194;5.112;2023-01-08T05:27:58;10.80;99.90
49829;DHT22;35723;51.194;5.112;2023-01-08T05:30:24;10.80;99.90
49829;DHT22;35723;51.194;5.112;2023-01-08T05:32:50;11.00;99.90
49829;DHT22;35723;51.194;5.112;2023-01-08T05:35:16;11.00;99.90
49829;DHT22;35723;51.194;5.112;2023-01-08T05:37:41;11.10;99.90
49829;DHT22;35723;51.194;5.112;2023-01-08T05:40:07;11.00;99.90
49829;DHT22;35723;51.194;5.112;2023-01-08T05:42:34;11.00;99.90
49829;DHT22;35723;51.194;5.112;2023-01-08T05:45:00;10.90;99.90
49829;DHT22;35723;51.194;5.112;2023-01-08T05:47:29;10.90;99.90
49829;DHT22;35723;51.194;5.112;2023-01-08T05:49:55;11.00;99.90
49829;DHT22;35723;51.194;5.112;2023-01-08T05:52:20;10.90;99.90
49829;DHT22;35723;51.194;5.112;2023-01-08T05:54:46;10.90;99.90
49829;DHT22;35723;51.194;5.112;2023-01-08T05:57:12;10.70;99.90
49829;DHT22;35723;51.194;5.112;2023-01-08T05:59:37;10.60;99.90
49829;DHT22;35723;51.194;5.112;2023-01-08T06:02:03;10.70;99.90
49829;DHT22;35723;51.194;5.112;2023-01-08T06:04:28;10.70;99.90
49829;DHT22;35723;51.194;5.112;2023-01-08T06:06:54;10.70;99.90
49829;DHT22;35723;51.194;5.112;2023-01-08T06:09:20;10.70;99.90
49829;DHT22;35723;51.194;5.112;2023-01-08T06:11:45;10.60;99.90
49829;DHT22;35723;51.194;5.112;2023-01-08T06:14:12;10.60;99.90
49829;DHT22;35723;51.194;5.112;2023-01-08T06:16:38;10.60;99.90
49829;DHT22;35723;51.194;5.112;2023-01-08T06:19:04;10.50;99.90
49829;DHT22;35723;51.194;5.112;2023-01-08T06:21:30;10.60;99.90
49829;DHT22;35723;51.194;5.112;2023-01-08T06:23:55;10.50;99.90
49829;DHT22;35723;51.194;5.112;2023-01-08T06:26:21;10.40;99.90
49829;DHT22;35723;51.194;5.112;2023-01-08T06:28:46;10.40;99.90
49829;DHT22;35723;51.194;5.112;2023-01-08T06:31:12;10.40;99.90
49829;DHT22;35723;51.194;5.112;2023-01-08T06:33:38;10.30;99.90
49829;DHT22;35723;51.194;5.112;2023-01-08T06:36:04;10.30;99.90
49829;DHT22;35723;51.194;5.112;2023-01-08T06:38:31;10.40;99.90
49829;DHT22;35723;51.194;5.112;2023-01-08T06:40:57;10.40;99.90
49829;DHT22;35723;51.194;5.112;2023-01-08T06:43:23;10.20;99.90
49829;DHT22;35723;51.194;5.112;2023-01-08T06:45:53;10.30;99.90
49829;DHT22;35723;51.194;5.112;2023-01-08T06:48:19;10.20;99.90
49829;DHT22;35723;51.194;5.112;2023-01-08T06:50:44;10.20;99.90
49829;DHT22;35723;51.194;5.112;2023-01-08T06:53:10;10.10;99.90
49829;DHT22;35723;51.194;5.112;2023-01-08T06:55:36;10.10;99.90
49829;DHT22;35723;51.194;5.112;2023-01-08T06:58:02;10.10;99.90
49829;DHT22;35723;51.194;5.112;2023-01-08T07:00:28;10.10;99.90
49829;DHT22;35723;51.194;5.112;2023-01-08T07:02:54;10.10;99.90
49829;DHT22;35723;51.194;5.112;2023-01-08T07:05:21;10.10;99.90
49829;DHT22;35723;51.194;5.112;2023-01-08T07:07:47;10.20;99.90
49829;DHT22;35723;51.194;5.112;2023-01-08T07:10:12;10.30;99.90
49829;DHT22;35723;51.194;5.112;2023-01-08T07:12:38;10.40;99.90
49829;DHT22;35723;51.194;5.112;2023-01-08T07:15:04;10.40;99.90
49829;DHT22;35723;51.194;5.112;2023-01-08T07:17:31;10.30;99.90
49829;DHT22;35723;51.194;5.112;2023-01-08T07:19:57;10.20;99.90
49829;DHT22;35723;51.194;5.112;2023-01-08T07:22:23;10.30;99.90
49829;DHT22;35723;51.194;5.112;2023-01-08T07:24:50;10.10;99.90
49829;DHT22;35723;51.194;5.112;2023-01-08T07:27:16;10.00;99.90
49829;DHT22;35723;51.194;5.112;2023-01-08T07:29:41;9.90;99.90
49829;DHT22;35723;51.194;5.112;2023-01-08T07:32:07;9.80;99.90
49829;DHT22;35723;51.194;5.112;2023-01-08T07:34:33;9.80;99.90
49829;DHT22;35723;51.194;5.112;2023-01-08T07:36:59;9.90;99.90
49829;DHT22;35723;51.194;5.112;2023-01-08T07:39:26;10.00;99.90
49829;DHT22;35723;51.194;5.112;2023-01-08T07:41:52;10.10;99.90
49829;DHT22;35723;51.194;5.112;2023-01-08T07:44:17;10.10;99.90
49829;DHT22;35723;51.194;5.112;2023-01-08T07:46:43;10.20;99.90
49829;DHT22;35723;51.194;5.112;2023-01-08T07:49:10;10.20;99.90
49829;DHT22;35723;51.194;5.112;2023-01-08T07:51:36;10.10;99.90
49829;DHT22;35723;51.194;5.112;2023-01-08T07:54:01;10.50;99.90
49829;DHT22;35723;51.194;5.112;2023-01-08T07:56:27;10.70;99.90
49829;DHT22;35723;51.194;5.112;2023-01-08T07:58:53;10.00;99.90
49829;DHT22;35723;51.194;5.112;2023-01-08T08:01:18;9.70;99.90
49829;DHT22;35723;51.194;5.112;2023-01-08T08:03:44;9.70;99.90
49829;DHT22;35723;51.194;5.112;2023-01-08T08:06:10;9.60;99.90
49829;DHT22;35723;51.194;5.112;2023-01-08T08:08:35;9.80;99.90
49829;DHT22;35723;51.194;5.112;2023-01-08T08:11:01;9.80;99.90
49829;DHT22;35723;51.194;5.112;2023-01-08T08:13:27;9.80;99.90
49829;DHT22;35723;51.194;5.112;2023-01-08T08:15:53;9.80;99.90
49829;DHT22;35723;51.194;5.112;2023-01-08T08:18:19;9.90;99.90
49829;DHT22;35723;51.194;5.112;2023-01-08T08:20:44;9.90;99.90
49829;DHT22;35723;51.194;5.112;2023-01-08T08:23:12;10.00;99.90
49829;DHT22;35723;51.194;5.112;2023-01-08T08:25:39;9.90;99.90
49829;DHT22;35723;51.194;5.112;2023-01-08T08:28:05;9.90;99.90
49829;DHT22;35723;51.194;5.112;2023-01-08T08:30:33;10.10;99.90
49829;DHT22;35723;51.194;5.112;2023-01-08T08:33:01;10.00;99.90
49829;DHT22;35723;51.194;5.112;2023-01-08T08:35:27;10.10;99.90
49829;DHT22;35723;51.194;5.112;2023-01-08T08:37:54;10.10;99.90
49829;DHT22;35723;51.194;5.112;2023-01-08T08:40:20;10.20;99.90
49829;DHT22;35723;51.194;5.112;2023-01-08T08:42:45;10.10;99.90
49829;DHT22;35723;51.194;5.112;2023-01-08T08:45:11;10.20;99.90
49829;DHT22;35723;51.194;5.112;2023-01-08T08:47:36;10.20;99.90
49829;DHT22;35723;51.194;5.112;2023-01-08T08:50:04;10.20;99.90
49829;DHT22;35723;51.194;5.112;2023-01-08T08:52:31;10.30;99.90
49829;DHT22;35723;51.194;5.112;2023-01-08T08:54:57;10.20;99.90
49829;DHT22;35723;51.194;5.112;2023-01-08T08:57:26;10.10;99.90
49829;DHT22;35723;51.194;5.112;2023-01-08T08:59:52;10.10;99.90
49829;DHT22;35723;51.194;5.112;2023-01-08T09:02:18;10.20;99.90
49829;DHT22;35723;51.194;5.112;2023-01-08T09:04:43;10.20;99.90
49829;DHT22;35723;51.194;5.112;2023-01-08T09:07:09;10.20;99.90
49829;DHT22;35723;51.194;5.112;2023-01-08T09:09:35;10.30;99.90
49829;DHT22;35723;51.194;5.112;2023-01-08T09:12:00;10.30;99.90
49829;DHT22;35723;51.194;5.112;2023-01-08T09:14:26;10.20;99.90
49829;DHT22;35723;51.194;5.112;2023-01-08T09:16:52;10.20;99.90
49829;DHT22;35723;51.194;5.112;2023-01-08T09:19:17;10.30;99.90
49829;DHT22;35723;51.194;5.112;2023-01-08T09:21:43;10.30;99.90
49829;DHT22;35723;51.194;5.112;2023-01-08T09:24:09;10.30;99.90
49829;DHT22;35723;51.194;5.112;2023-01-08T09:26:35;10.20;99.90
49829;DHT22;35723;51.194;5.112;2023-01-08T09:29:00;10.40;99.90
49829;DHT22;35723;51.194;5.112;2023-01-08T09:31:26;10.50;99.90
49829;DHT22;35723;51.194;5.112;2023-01-08T09:33:52;10.50;99.90
49829;DHT22;35723;51.194;5.112;2023-01-08T09:36:18;10.60;99.90
49829;DHT22;35723;51.194;5.112;2023-01-08T09:38:44;10.50;99.90
49829;DHT22;35723;51.194;5.112;2023-01-08T09:41:15;10.40;99.90
49829;DHT22;35723;51.194;5.112;2023-01-08T09:43:44;10.40;99.90
49829;DHT22;35723;51.194;5.112;2023-01-08T09:46:11;10.50;99.90
49829;DHT22;35723;51.194;5.112;2023-01-08T09:48:40;10.50;99.90
49829;DHT22;35723;51.194;5.112;2023-01-08T09:51:13;10.50;99.90
49829;DHT22;35723;51.194;5.112;2023-01-08T09:53:39;10.50;99.90
49829;DHT22;35723;51.194;5.112;2023-01-08T09:56:12;10.40;99.90
49829;DHT22;35723;51.194;5.112;2023-01-08T09:58:42;10.40;99.90
49829;DHT22;35723;51.194;5.112;2023-01-08T10:01:13;10.40;99.90
49829;DHT22;35723;51.194;5.112;2023-01-08T10:06:17;10.50;99.90
49829;DHT22;35723;51.194;5.112;2023-01-08T10:08:43;10.50;99.90
49829;DHT22;35723;51.194;5.112;2023-01-08T10:11:09;10.40;99.90
49829;DHT22;35723;51.194;5.112;2023-01-08T10:13:38;10.40;99.90
49829;DHT22;35723;51.194;5.112;2023-01-08T10:16:07;10.50;99.90
49829;DHT22;35723;51.194;5.112;2023-01-08T10:18:33;10.50;99.90
49829;DHT22;35723;51.194;5.112;2023-01-08T10:20:59;10.60;99.90
49829;DHT22;35723;51.194;5.112;2023-01-08T10:23:25;10.70;99.90
49829;DHT22;35723;51.194;5.112;2023-01-08T10:25:59;10.70;99.90
49829;DHT22;35723;51.194;5.112;2023-01-08T10:28:30;10.70;99.90
49829;DHT22;35723;51.194;5.112;2023-01-08T10:31:07;10.70;99.90
49829;DHT22;35723;51.194;5.112;2023-01-08T10:36:05;11.00;99.90
49829;DHT22;35723;51.194;5.112;2023-01-08T10:38:39;11.20;99.90
49829;DHT22;35723;51.194;5.112;2023-01-08T10:41:09;11.30;99.90
49829;DHT22;35723;51.194;5.112;2023-01-08T10:43:59;11.40;99.90
49829;DHT22;35723;51.194;5.112;2023-01-08T10:46:43;11.60;99.90
49829;DHT22;35723;51.194;5.112;2023-01-08T10:51:51;11.90;99.90
49829;DHT22;35723;51.194;5.112;2023-01-08T10:54:37;11.90;99.90
49829;DHT22;35723;51.194;5.112;2023-01-08T10:57:20;11.90;99.90
49829;DHT22;35723;51.194;5.112;2023-01-08T10:59:46;12.00;99.90
49829;DHT22;35723;51.194;5.112;2023-01-08T11:02:38;12.00;99.90
49829;DHT22;35723;51.194;5.112;2023-01-08T11:05:06;12.10;99.90
49829;DHT22;35723;51.194;5.112;2023-01-08T11:07:33;11.90;99.90
49829;DHT22;35723;51.194;5.112;2023-01-08T11:10:00;11.80;99.90
49829;DHT22;35723;51.194;5.112;2023-01-08T11:12:35;11.60;99.90
49829;DHT22;35723;51.194;5.112;2023-01-08T11:15:06;11.70;99.90
49829;DHT22;35723;51.194;5.112;2023-01-08T11:17:33;11.90;99.90
49829;DHT22;35723;51.194;5.112;2023-01-08T11:20:07;11.90;99.90
49829;DHT22;35723;51.194;5.112;2023-01-08T11:22:33;11.90;99.90
49829;DHT22;35723;51.194;5.112;2023-01-08T11:24:59;11.90;99.90
49829;DHT22;35723;51.194;5.112;2023-01-08T11:27:34;12.10;99.90
49829;DHT22;35723;51.194;5.112;2023-01-08T11:30:18;12.20;99.90
49829;DHT22;35723;51.194;5.112;2023-01-08T11:32:52;12.20;99.90
49829;DHT22;35723;51.194;5.112;2023-01-08T11:35:27;12.20;99.90
49829;DHT22;35723;51.194;5.112;2023-01-08T11:38:01;12.20;99.90
49829;DHT22;35723;51.194;5.112;2023-01-08T11:40:41;12.40;99.90
49829;DHT22;35723;51.194;5.112;2023-01-08T11:54:25;12.40;99.90
49829;DHT22;35723;51.194;5.112;2023-01-08T12:11:28;12.00;99.90
49829;DHT22;35723;51.194;5.112;2023-01-08T12:25:25;12.50;99.90
49829;DHT22;35723;51.194;5.112;2023-01-08T12:28:13;12.40;99.90
49829;DHT22;35723;51.194;5.112;2023-01-08T12:33:47;12.60;99.90
49829;DHT22;35723;51.194;5.112;2023-01-08T12:36:22;12.60;99.90
49829;DHT22;35723;51.194;5.112;2023-01-08T12:39:29;12.70;99.90
49829;DHT22;35723;51.194;5.112;2023-01-08T12:42:07;12.80;99.90
49829;DHT22;35723;51.194;5.112;2023-01-08T12:44:35;12.70;99.90
49829;DHT22;35723;51.194;5.112;2023-01-08T12:47:03;12.70;99.90
49829;DHT22;35723;51.194;5.112;2023-01-08T12:49:40;12.60;99.90
49829;DHT22;35723;51.194;5.112;2023-01-08T12:52:27;12.60;99.90
49829;DHT22;35723;51.194;5.112;2023-01-08T12:55:19;12.70;99.90
49829;DHT22;35723;51.194;5.112;2023-01-08T12:57:59;12.60;99.90
49829;DHT22;35723;51.194;5.112;2023-01-08T13:00:48;12.60;99.90
49829;DHT22;35723;51.194;5.112;2023-01-08T13:03:21;12.60;99.90
49829;DHT22;35723;51.194;5.112;2023-01-08T13:05:48;12.60;99.90
49829;DHT22;35723;51.194;5.112;2023-01-08T13:08:32;12.70;99.90
49829;DHT22;35723;51.194;5.112;2023-01-08T13:10:59;12.70;99.90
49829;DHT22;35723;51.194;5.112;2023-01-08T13:13:33;12.50;99.90
49829;DHT22;35723;51.194;5.112;2023-01-08T13:18:58;12.40;99.90
49829;DHT22;35723;51.194;5.112;2023-01-08T13:21:54;12.60;99.90
49829;DHT22;35723;51.194;5.112;2023-01-08T13:24:32;12.50;99.90
49829;DHT22;35723;51.194;5.112;2023-01-08T13:29:48;12.50;99.90
49829;DHT22;35723;51.194;5.112;2023-01-08T13:37:36;12.40;99.90
49829;DHT22;35723;51.194;5.112;2023-01-08T13:40:01;12.40;99.90
49829;DHT22;35723;51.194;5.112;2023-01-08T13:42:32;12.50;99.90
49829;DHT22;35723;51.194;5.112;2023-01-08T13:44:59;12.50;99.90
49829;DHT22;35723;51.194;5.112;2023-01-08T13:47:28;12.40;99.90
49829;DHT22;35723;51.194;5.112;2023-01-08T13:49:55;12.40;99.90
49829;DHT22;35723;51.194;5.112;2023-01-08T13:52:43;12.30;99.90
49829;DHT22;35723;51.194;5.112;2023-01-08T13:55:19;12.30;99.90
49829;DHT22;35723;51.194;5.112;2023-01-08T13:57:52;12.30;99.90
49829;DHT22;35723;51.194;5.112;2023-01-08T14:00:25;12.40;99.90
49829;DHT22;35723;51.194;5.112;2023-01-08T14:02:53;12.40;99.90
49829;DHT22;35723;51.194;5.112;2023-01-08T14:05:25;12.40;99.90
49829;DHT22;35723;51.194;5.112;2023-01-08T14:07:52;12.30;99.90
49829;DHT22;35723;51.194;5.112;2023-01-08T14:10:17;12.30;99.90
49829;DHT22;35723;51.194;5.112;2023-01-08T14:12:43;12.40;99.90
49829;DHT22;35723;51.194;5.112;2023-01-08T14:15:22;12.40;99.90
49829;DHT22;35723;51.194;5.112;2023-01-08T14:17:50;12.50;99.90
49829;DHT22;35723;51.194;5.112;2023-01-08T14:20:43;12.50;99.90
49829;DHT22;35723;51.194;5.112;2023-01-08T14:23:15;12.40;99.90
49829;DHT22;35723;51.194;5.112;2023-01-08T14:25:46;12.60;99.90
49829;DHT22;35723;51.194;5.112;2023-01-08T14:28:16;12.60;99.90
49829;DHT22;35723;51.194;5.112;2023-01-08T14:30:49;12.70;99.90
49829;DHT22;35723;51.194;5.112;2023-01-08T14:33:16;12.60;99.90
49829;DHT22;35723;51.194;5.112;2023-01-08T14:35:43;12.60;99.90
49829;DHT22;35723;51.194;5.112;2023-01-08T14:38:11;12.60;99.90
49829;DHT22;35723;51.194;5.112;2023-01-08T14:40:40;12.50;99.90
49829;DHT22;35723;51.194;5.112;2023-01-08T14:43:13;12.40;99.90
49829;DHT22;35723;51.194;5.112;2023-01-08T14:45:48;12.40;99.90
49829;DHT22;35723;51.194;5.112;2023-01-08T14:48:24;12.40;99.90
49829;DHT22;35723;51.194;5.112;2023-01-08T14:51:04;12.40;99.90
49829;DHT22;35723;51.194;5.112;2023-01-08T14:53:34;12.40;99.90
49829;DHT22;35723;51.194;5.112;2023-01-08T14:56:03;12.40;99.90
49829;DHT22;35723;51.194;5.112;2023-01-08T14:58:36;12.40;99.90
49829;DHT22;35723;51.194;5.112;2023-01-08T15:01:07;12.30;99.90
49829;DHT22;35723;51.194;5.112;2023-01-08T15:03:40;12.30;99.90
49829;DHT22;35723;51.194;5.112;2023-01-08T15:06:07;12.30;99.90
49829;DHT22;35723;51.194;5.112;2023-01-08T15:08:43;12.20;99.90
49829;DHT22;35723;51.194;5.112;2023-01-08T15:13:45;12.10;99.90
49829;DHT22;35723;51.194;5.112;2023-01-08T15:18:45;12.10;99.90
49829;DHT22;35723;51.194;5.112;2023-01-08T15:21:21;12.10;99.90
49829;DHT22;35723;51.194;5.112;2023-01-08T15:23:55;12.20;99.90
49829;DHT22;35723;51.194;5.112;2023-01-08T15:26:22;12.30;99.90
49829;DHT22;35723;51.194;5.112;2023-01-08T15:29:03;12.30;99.90
49829;DHT22;35723;51.194;5.112;2023-01-08T15:31:44;12.40;99.90
49829;DHT22;35723;51.194;5.112;2023-01-08T15:34:10;12.30;99.90
49829;DHT22;35723;51.194;5.112;2023-01-08T15:36:36;12.20;99.90
49829;DHT22;35723;51.194;5.112;2023-01-08T15:39:02;12.10;99.90
49829;DHT22;35723;51.194;5.112;2023-01-08T15:41:36;12.00;99.90
49829;DHT22;35723;51.194;5.112;2023-01-08T15:44:21;12.00;99.90
49829;DHT22;35723;51.194;5.112;2023-01-08T15:46:48;12.00;99.90
49829;DHT22;35723;51.194;5.112;2023-01-08T15:49:15;12.00;99.90
49829;DHT22;35723;51.194;5.112;2023-01-08T15:51:44;12.00;99.90
49829;DHT22;35723;51.194;5.112;2023-01-08T15:54:11;11.90;99.90
49829;DHT22;35723;51.194;5.112;2023-01-08T15:56:37;11.90;99.90
49829;DHT22;35723;51.194;5.112;2023-01-08T15:59:03;11.80;99.90
49829;DHT22;35723;51.194;5.112;2023-01-08T16:01:30;11.70;99.90
49829;DHT22;35723;51.194;5.112;2023-01-08T16:03:56;11.80;99.90
49829;DHT22;35723;51.194;5.112;2023-01-08T16:06:22;11.70;99.90
49829;DHT22;35723;51.194;5.112;2023-01-08T16:08:48;11.80;99.90
49829;DHT22;35723;51.194;5.112;2023-01-08T16:11:15;11.80;99.90
49829;DHT22;35723;51.194;5.112;2023-01-08T16:13:41;11.90;99.90
49829;DHT22;35723;51.194;5.112;2023-01-08T16:16:08;11.80;99.90
49829;DHT22;35723;51.194;5.112;2023-01-08T16:18:35;11.80;99.90
49829;DHT22;35723;51.194;5.112;2023-01-08T16:21:01;11.90;99.90
49829;DHT22;35723;51.194;5.112;2023-01-08T16:23:26;11.90;99.90
49829;DHT22;35723;51.194;5.112;2023-01-08T16:25:52;11.80;99.90
49829;DHT22;35723;51.194;5.112;2023-01-08T16:28:18;11.90;99.90
49829;DHT22;35723;51.194;5.112;2023-01-08T16:30:43;11.90;99.90
49829;DHT22;35723;51.194;5.112;2023-01-08T16:33:09;11.80;99.90
49829;DHT22;35723;51.194;5.112;2023-01-08T16:35:35;11.80;99.90
49829;DHT22;35723;51.194;5.112;2023-01-08T16:38:00;11.80;99.90
49829;DHT22;35723;51.194;5.112;2023-01-08T16:40:26;11.70;99.90
49829;DHT22;35723;51.194;5.112;2023-01-08T16:42:52;11.70;99.90
49829;DHT22;35723;51.194;5.112;2023-01-08T16:45:17;11.70;99.90
49829;DHT22;35723;51.194;5.112;2023-01-08T16:47:43;11.80;99.90
49829;DHT22;35723;51.194;5.112;2023-01-08T16:50:10;11.90;99.90
49829;DHT22;35723;51.194;5.112;2023-01-08T16:52:37;11.80;99.90
49829;DHT22;35723;51.194;5.112;2023-01-08T16:55:04;11.80;99.90
49829;DHT22;35723;51.194;5.112;2023-01-08T16:57:29;11.80;99.90
49829;DHT22;35723;51.194;5.112;2023-01-08T16:59:55;11.70;99.90
49829;DHT22;35723;51.194;5.112;2023-01-08T17:02:20;11.70;99.90
49829;DHT22;35723;51.194;5.112;2023-01-08T17:04:46;11.60;99.90